Time;durP1;ratioP1;P1;durP2;ratioP2;P2;SDS_P1;SDS_P2;PMS_P1;PMS_P2;Temp;Humidity;BMP_temperature;BMP_pressure;BME280_temperature;BME280_humidity;BME280_pressure;Samples;Min_cycle;Max_cycle;Signal;HPM_P1;HPM_P2
2022/08/19 00:01:19;;;;;;;15.50;12.18;;;;;;;;;;5085382;28;20560;-61
2022/08/19 00:04:06;;;;;;;14.90;12.25;;;;;;;;;;5082481;28;20041;-61
2022/08/19 00:06:52;;;;;;;15.57;11.50;;;;;;;;;;5087749;28;20016;-60
2022/08/19 00:09:37;;;;;;;15.85;11.13;;;;;;;;;;5084777;28;20032;-61
2022/08/19 00:12:23;;;;;;;14.45;11.52;;;;;;;;;;5085673;28;20032;-67
2022/08/19 00:15:12;;;;;;;15.15;11.93;;;;;;;;;;5082099;28;20031;-61
2022/08/19 00:17:57;;;;;;;16.48;12.05;;;;;;;;;;5086156;28;20024;-65
2022/08/19 00:20:43;;;;;;;12.45;10.27;;;;;;;;;;5090392;28;20056;-66
2022/08/19 00:23:29;;;;;;;17.92;12.80;;;;;;;;;;5078764;28;20434;-64
2022/08/19 00:26:15;;;;;;;13.25;10.93;;;;;;;;;;5088381;28;20042;-66
2022/08/19 00:29:01;;;;;;;14.48;10.90;;;;;;;;;;5079031;28;20089;-66
2022/08/19 00:31:47;;;;;;;14.75;10.57;;;;;;;;;;5087848;28;20161;-61
2022/08/19 00:34:32;;;;;;;17.15;12.75;;;;;;;;;;5089534;28;20025;-64
2022/08/19 00:37:19;;;;;;;19.38;12.55;;;;;;;;;;5083957;28;20028;-66
2022/08/19 00:40:06;;;;;;;15.55;12.50;;;;;;;;;;5086856;28;20036;-65
2022/08/19 00:42:53;;;;;;;13.50;10.98;;;;;;;;;;5093190;28;20458;-66
2022/08/19 00:45:41;;;;;;;16.25;10.98;;;;;;;;;;5086809;28;20035;-65
2022/08/19 00:48:26;;;;;;;14.15;11.50;;;;;;;;;;5083946;28;20383;-64
2022/08/19 00:51:12;;;;;;;15.90;11.98;;;;;;;;;;5085781;28;20047;-67
2022/08/19 00:53:58;;;;;;;14.70;10.52;;;;;;;;;;5076742;28;20028;-65
2022/08/19 00:56:44;;;;;;;14.45;11.70;;;;;;;;;;5084584;28;20035;-64
2022/08/19 00:59:30;;;;;;;14.63;10.93;;;;;;;;;;5072544;28;20036;-63
2022/08/19 01:02:16;;;;;;;13.77;11.60;;;;;;;;;;5088665;28;20032;-64
2022/08/19 01:05:04;;;;;;;14.40;11.50;;;;;;;;;;5088898;28;20081;-64
2022/08/19 01:07:50;;;;;;;14.27;12.00;;;;;;;;;;5086816;28;20063;-62
2022/08/19 01:10:41;;;;;;;14.05;11.20;;;;;;;;;;5081666;28;20038;-65
2022/08/19 01:13:28;;;;;;;14.13;12.05;;;;;;;;;;5090991;28;20079;-62
2022/08/19 01:16:14;;;;;;;15.50;12.15;;;;;;;;;;5078718;28;20032;-61
2022/08/19 01:19:00;;;;;;;14.13;11.35;;;;;;;;;;5087902;28;20089;-62
2022/08/19 01:21:53;;;;;;;14.20;11.38;;;;;;;;;;5074426;28;20032;-62
2022/08/19 01:24:39;;;;;;;14.57;11.82;;;;;;;;;;5089443;28;20077;-62
2022/08/19 01:27:25;;;;;;;13.90;11.32;;;;;;;;;;5087492;28;20031;-67
2022/08/19 01:30:13;;;;;;;16.30;11.88;;;;;;;;;;5089656;28;20036;-64
2022/08/19 01:33:00;;;;;;;15.73;12.43;;;;;;;;;;5079789;28;20029;-64
2022/08/19 01:35:46;;;;;;;15.68;12.23;;;;;;;;;;5091183;28;20377;-63
2022/08/19 01:38:36;;;;;;;14.07;10.95;;;;;;;;;;5091423;28;20039;-62
2022/08/19 01:41:23;;;;;;;14.82;12.27;;;;;;;;;;5086009;28;20050;-68
2022/08/19 01:44:09;;;;;;;12.77;10.43;;;;;;;;;;5079889;28;20029;-64
2022/08/19 01:46:55;;;;;;;16.42;11.95;;;;;;;;;;5086869;28;20031;-71
2022/08/19 01:49:41;;;;;;;15.23;11.70;;;;;;;;;;5090003;28;20034;-66
2022/08/19 01:52:27;;;;;;;14.45;12.15;;;;;;;;;;5086209;28;20032;-66
2022/08/19 01:55:15;;;;;;;17.33;12.70;;;;;;;;;;5090072;28;20441;-65
2022/08/19 01:58:02;;;;;;;15.18;12.30;;;;;;;;;;5082764;28;20032;-65
2022/08/19 02:00:48;;;;;;;17.85;13.30;;;;;;;;;;5086731;28;20123;-65
2022/08/19 02:03:34;;;;;;;19.60;13.00;;;;;;;;;;5081365;28;20036;-62
2022/08/19 02:06:20;;;;;;;16.30;13.00;;;;;;;;;;5080407;28;20025;-71
2022/08/19 02:09:06;;;;;;;19.15;13.93;;;;;;;;;;5083703;28;20059;-72
2022/08/19 02:11:53;;;;;;;17.17;12.85;;;;;;;;;;5085478;28;20115;-72
2022/08/19 02:14:38;;;;;;;15.60;13.40;;;;;;;;;;5084154;28;20027;-72
2022/08/19 02:17:24;;;;;;;15.60;12.90;;;;;;;;;;5080743;28;21013;-73
2022/08/19 02:20:10;;;;;;;15.90;12.85;;;;;;;;;;5087852;28;20032;-72
2022/08/19 02:22:55;;;;;;;16.98;12.57;;;;;;;;;;5076316;28;20140;-60
2022/08/19 02:25:41;;;;;;;17.02;13.82;;;;;;;;;;5085542;28;20094;-62
2022/08/19 02:28:27;;;;;;;17.48;12.98;;;;;;;;;;5087642;28;20024;-63
2022/08/19 02:31:17;;;;;;;17.73;13.98;;;;;;;;;;5088876;28;20032;-62
2022/08/19 02:34:02;;;;;;;17.33;14.00;;;;;;;;;;5089534;28;20494;-63
2022/08/19 02:36:48;;;;;;;17.92;14.20;;;;;;;;;;5090108;28;20071;-63
2022/08/19 02:39:33;;;;;;;20.70;15.30;;;;;;;;;;5081109;28;20043;-65
2022/08/19 02:42:19;;;;;;;18.40;14.93;;;;;;;;;;5091107;28;20035;-75
2022/08/19 02:45:05;;;;;;;18.13;14.35;;;;;;;;;;5079295;28;20036;-70
2022/08/19 02:47:50;;;;;;;19.65;14.18;;;;;;;;;;5086802;28;20032;-69
2022/08/19 02:50:39;;;;;;;15.88;13.20;;;;;;;;;;5088922;28;20036;-68
2022/08/19 02:53:26;;;;;;;17.20;14.02;;;;;;;;;;5076376;28;20063;-69
2022/08/19 02:56:12;;;;;;;17.15;14.23;;;;;;;;;;5080784;28;20135;-73
2022/08/19 02:58:58;;;;;;;18.00;15.55;;;;;;;;;;5095088;28;20504;-64
2022/08/19 03:01:43;;;;;;;17.13;14.38;;;;;;;;;;5084454;28;20035;-71
2022/08/19 03:04:29;;;;;;;18.10;14.50;;;;;;;;;;5088371;28;20124;-73
2022/08/19 03:07:15;;;;;;;18.27;16.05;;;;;;;;;;5088713;28;20482;-71
2022/08/19 03:10:01;;;;;;;19.00;14.35;;;;;;;;;;5087155;28;20501;-72
2022/08/19 03:12:47;;;;;;;20.35;16.55;;;;;;;;;;5084574;28;20043;-70
2022/08/19 03:15:33;;;;;;;21.38;15.90;;;;;;;;;;5079802;28;20375;-72
2022/08/19 03:18:18;;;;;;;18.45;15.65;;;;;;;;;;5082764;28;20074;-63
2022/08/19 03:21:04;;;;;;;19.02;15.13;;;;;;;;;;5088291;28;20027;-61
2022/08/19 03:23:53;;;;;;;23.73;17.35;;;;;;;;;;5079770;28;20024;-62
2022/08/19 03:26:44;;;;;;;21.35;15.77;;;;;;;;;;5088529;28;20032;-60
2022/08/19 03:29:31;;;;;;;19.13;14.93;;;;;;;;;;5080707;28;20466;-61
2022/08/19 03:32:16;;;;;;;20.50;16.10;;;;;;;;;;5086645;28;20055;-61
2022/08/19 03:35:02;;;;;;;18.85;16.60;;;;;;;;;;5080288;28;20027;-69
2022/08/19 03:37:48;;;;;;;20.75;16.42;;;;;;;;;;5087054;28;20030;-65
2022/08/19 03:40:36;;;;;;;19.08;15.73;;;;;;;;;;5080699;28;20054;-70
2022/08/19 03:43:22;;;;;;;19.73;15.77;;;;;;;;;;5086288;28;20020;-66
2022/08/19 03:46:09;;;;;;;21.52;17.10;;;;;;;;;;5088468;27;20106;-67
2022/08/19 03:48:56;;;;;;;20.55;16.58;;;;;;;;;;5087373;28;20594;-65
2022/08/19 03:51:42;;;;;;;22.02;17.15;;;;;;;;;;5078638;28;20463;-65
2022/08/19 03:54:28;;;;;;;22.48;17.02;;;;;;;;;;5085771;28;20082;-72
2022/08/19 03:57:13;;;;;;;20.25;17.00;;;;;;;;;;5089328;28;20046;-62
2022/08/19 03:59:59;;;;;;;20.88;18.50;;;;;;;;;;5088968;28;20416;-62
2022/08/19 04:02:44;;;;;;;21.15;17.48;;;;;;;;;;5087621;28;20032;-63
2022/08/19 04:05:30;;;;;;;19.02;16.83;;;;;;;;;;5085954;28;20040;-62
2022/08/19 04:08:18;;;;;;;20.60;16.40;;;;;;;;;;5086515;28;20081;-61
2022/08/19 04:11:07;;;;;;;22.92;17.77;;;;;;;;;;5084909;28;20557;-61
2022/08/19 04:13:53;;;;;;;21.80;17.60;;;;;;;;;;5077451;28;20048;-72
2022/08/19 04:16:39;;;;;;;24.63;17.42;;;;;;;;;;5084761;28;20089;-62
2022/08/19 04:19:25;;;;;;;23.88;19.08;;;;;;;;;;5088305;28;20035;-61
2022/08/19 04:22:11;;;;;;;23.70;18.25;;;;;;;;;;5085970;28;20105;-61
2022/08/19 04:24:56;;;;;;;23.80;19.02;;;;;;;;;;5086658;28;20035;-64
2022/08/19 04:27:46;;;;;;;25.85;19.73;;;;;;;;;;5077724;28;20111;-63
2022/08/19 04:30:37;;;;;;;23.48;19.35;;;;;;;;;;5083947;28;20024;-67
2022/08/19 04:33:24;;;;;;;22.88;17.95;;;;;;;;;;5089384;28;20051;-73
2022/08/19 04:36:20;;;;;;;24.10;19.00;;;;;;;;;;5089412;28;20020;-67
2022/08/19 04:39:11;;;;;;;24.35;18.38;;;;;;;;;;5088997;28;20107;-67
2022/08/19 04:45:03;;;;;;;22.33;18.67;;;;;;;;;;5084554;28;20032;-65
2022/08/19 04:47:49;;;;;;;21.40;18.08;;;;;;;;;;5080010;28;20150;-66
2022/08/19 04:50:35;;;;;;;24.45;19.13;;;;;;;;;;5089990;28;20051;-68
2022/08/19 04:53:21;;;;;;;22.52;18.02;;;;;;;;;;5097972;28;20023;-62
2022/08/19 04:56:11;;;;;;;23.52;19.17;;;;;;;;;;5083592;28;20135;-63
2022/08/19 04:58:57;;;;;;;22.50;18.13;;;;;;;;;;5084077;28;20031;-63
2022/08/19 05:01:43;;;;;;;23.10;19.17;;;;;;;;;;5091357;28;20094;-64
2022/08/19 05:04:30;;;;;;;24.13;18.35;;;;;;;;;;5090423;28;20028;-64
2022/08/19 05:07:16;;;;;;;21.63;17.67;;;;;;;;;;5088185;28;20108;-67
2022/08/19 05:10:04;;;;;;;24.45;19.40;;;;;;;;;;5084907;28;20379;-73
2022/08/19 05:12:49;;;;;;;22.67;18.20;;;;;;;;;;5086326;28;20058;-65
2022/08/19 05:15:36;;;;;;;22.83;18.83;;;;;;;;;;5074189;28;20067;-67
2022/08/19 05:24:30;;;;;;;21.42;18.38;;;;;;;;;;5077415;28;20047;-66
2022/08/19 05:27:16;;;;;;;23.80;18.73;;;;;;;;;;5083438;28;20085;-72
2022/08/19 05:30:02;;;;;;;22.60;18.52;;;;;;;;;;5080566;28;20032;-68
2022/08/19 05:32:48;;;;;;;22.75;18.48;;;;;;;;;;5090989;28;20065;-67
2022/08/19 05:35:33;;;;;;;24.83;17.17;;;;;;;;;;5087140;28;20388;-67
2022/08/19 05:38:19;;;;;;;21.85;18.33;;;;;;;;;;5082447;28;20081;-66
2022/08/19 05:41:12;;;;;;;18.45;15.55;;;;;;;;;;5078032;28;20020;-66
2022/08/19 05:44:00;;;;;;;21.30;17.77;;;;;;;;;;5086935;28;20027;-68
2022/08/19 05:46:49;;;;;;;20.58;16.38;;;;;;;;;;5081209;28;20387;-65
2022/08/19 05:49:36;;;;;;;19.63;16.60;;;;;;;;;;5079666;28;20075;-68
2022/08/19 05:52:22;;;;;;;22.30;18.90;;;;;;;;;;5091274;28;20771;-62
2022/08/19 05:55:07;;;;;;;22.70;17.20;;;;;;;;;;5082594;28;20020;-63
2022/08/19 05:57:53;;;;;;;19.95;17.00;;;;;;;;;;5086146;28;20020;-64
2022/08/19 06:00:39;;;;;;;19.67;17.13;;;;;;;;;;5090902;28;20028;-65
2022/08/19 06:03:25;;;;;;;21.55;16.70;;;;;;;;;;5087259;28;21343;-65
2022/08/19 06:06:11;;;;;;;21.70;17.42;;;;;;;;;;5080268;28;20429;-65
2022/08/19 06:08:57;;;;;;;21.60;17.17;;;;;;;;;;5086820;28;20020;-66
2022/08/19 06:11:44;;;;;;;21.38;18.48;;;;;;;;;;5082986;28;20084;-68
2022/08/19 06:14:31;;;;;;;21.63;18.42;;;;;;;;;;5083119;28;20055;-73
2022/08/19 06:17:16;;;;;;;19.45;16.42;;;;;;;;;;5088083;28;20377;-70
2022/08/19 06:20:07;;;;;;;22.40;18.20;;;;;;;;;;5087806;27;20099;-69
2022/08/19 06:22:53;;;;;;;22.83;19.33;;;;;;;;;;5082800;28;20036;-68
2022/08/19 06:25:39;;;;;;;22.08;18.05;;;;;;;;;;5077230;28;20555;-67
2022/08/19 06:28:25;;;;;;;21.20;18.05;;;;;;;;;;5090105;28;20038;-65
2022/08/19 06:31:12;;;;;;;21.40;18.27;;;;;;;;;;5088632;28;20073;-71
2022/08/19 06:33:58;;;;;;;24.48;18.30;;;;;;;;;;5086936;28;20063;-74
2022/08/19 06:36:45;;;;;;;21.40;16.90;;;;;;;;;;5089016;28;20093;-73
2022/08/19 06:39:33;;;;;;;22.15;18.70;;;;;;;;;;5089706;28;20095;-71
2022/08/19 06:42:19;;;;;;;21.30;18.33;;;;;;;;;;5084632;28;20024;-75
2022/08/19 06:45:05;;;;;;;20.05;17.83;;;;;;;;;;5083704;28;20038;-74
2022/08/19 06:47:55;;;;;;;23.20;18.13;;;;;;;;;;5085820;28;20028;-76
2022/08/19 06:50:41;;;;;;;20.65;17.98;;;;;;;;;;5089143;28;20070;-75
2022/08/19 06:53:27;;;;;;;22.92;18.63;;;;;;;;;;5076804;28;20032;-78
2022/08/19 06:56:14;;;;;;;24.25;18.15;;;;;;;;;;5084750;28;20040;-77
2022/08/19 06:59:04;;;;;;;24.55;17.10;;;;;;;;;;5087069;28;20027;-72
2022/08/19 07:01:51;;;;;;;21.73;17.95;;;;;;;;;;5083184;28;20085;-71
2022/08/19 07:04:38;;;;;;;20.45;16.98;;;;;;;;;;5083466;28;20497;-66
2022/08/19 07:07:23;;;;;;;23.85;18.20;;;;;;;;;;5084990;28;20032;-70
2022/08/19 07:10:09;;;;;;;22.65;18.73;;;;;;;;;;5082346;28;20061;-70
2022/08/19 07:12:55;;;;;;;23.23;18.55;;;;;;;;;;5080581;28;20032;-69
2022/08/19 07:15:41;;;;;;;22.08;17.08;;;;;;;;;;5077243;28;20086;-71
2022/08/19 07:18:26;;;;;;;19.80;17.20;;;;;;;;;;5087501;28;20482;-68
2022/08/19 07:21:14;;;;;;;21.70;17.88;;;;;;;;;;5085551;28;20028;-80
2022/08/19 07:24:00;;;;;;;20.27;17.80;;;;;;;;;;5084283;28;20028;-78
2022/08/19 07:26:46;;;;;;;20.75;16.70;;;;;;;;;;5084411;28;20463;-76
2022/08/19 07:29:33;;;;;;;21.17;18.02;;;;;;;;;;5088745;28;20433;-76
2022/08/19 07:32:18;;;;;;;19.30;16.88;;;;;;;;;;5089459;28;20024;-85
2022/08/19 07:35:05;;;;;;;19.55;17.45;;;;;;;;;;5088252;28;20160;-78
2022/08/19 07:37:52;;;;;;;22.40;18.58;;;;;;;;;;5076428;28;20099;-85
2022/08/19 07:40:38;;;;;;;21.73;17.63;;;;;;;;;;5088258;28;20039;-75
2022/08/19 07:43:25;;;;;;;22.33;18.30;;;;;;;;;;5088286;28;20088;-69
2022/08/19 07:46:12;;;;;;;21.58;18.40;;;;;;;;;;5086473;28;20055;-71
2022/08/19 07:48:58;;;;;;;23.20;16.30;;;;;;;;;;5087779;28;20024;-72
2022/08/19 07:51:44;;;;;;;22.40;17.00;;;;;;;;;;5088259;28;20032;-73
2022/08/19 07:54:32;;;;;;;21.52;17.05;;;;;;;;;;5081926;28;20025;-82
2022/08/19 07:57:18;;;;;;;22.60;17.95;;;;;;;;;;5085602;28;20394;-74
2022/08/19 08:00:05;;;;;;;20.67;17.02;;;;;;;;;;5084244;28;20067;-75
2022/08/19 08:02:51;;;;;;;21.35;17.60;;;;;;;;;;5079302;28;20028;-76
2022/08/19 08:12:00;;;;;;;22.33;17.17;;;;;;;;;;5088236;28;20032;-75
2022/08/19 08:14:47;;;;;;;19.85;15.77;;;;;;;;;;5082789;28;20035;-76
2022/08/19 08:17:33;;;;;;;21.33;16.02;;;;;;;;;;5091825;28;20431;-75
2022/08/19 08:20:19;;;;;;;19.75;15.60;;;;;;;;;;5092880;28;20028;-76
2022/08/19 08:23:23;;;;;;;19.42;15.20;;;;;;;;;;5092789;28;20028;-74
2022/08/19 08:26:09;;;;;;;17.77;15.88;;;;;;;;;;5090023;28;20052;-78
2022/08/19 08:28:54;;;;;;;21.80;16.90;;;;;;;;;;5091731;28;20074;-75
2022/08/19 08:31:40;;;;;;;19.73;16.23;;;;;;;;;;5089360;28;20172;-75
2022/08/19 08:34:26;;;;;;;17.15;13.95;;;;;;;;;;5090269;28;20061;-74
2022/08/19 08:37:11;;;;;;;19.02;16.35;;;;;;;;;;5081794;28;20267;-74
2022/08/19 08:39:57;;;;;;;20.48;15.55;;;;;;;;;;5090862;28;20028;-74
2022/08/19 08:42:46;;;;;;;20.85;15.60;;;;;;;;;;5090147;28;20130;-74
2022/08/19 08:45:34;;;;;;;18.38;15.13;;;;;;;;;;5091717;28;20022;-73
2022/08/19 08:48:22;;;;;;;17.38;14.88;;;;;;;;;;5090745;28;20032;-76
2022/08/19 08:51:11;;;;;;;20.48;16.48;;;;;;;;;;5087538;28;20063;-73
2022/08/19 08:53:57;;;;;;;18.25;15.45;;;;;;;;;;5090565;28;20479;-76
2022/08/19 08:56:44;;;;;;;16.75;14.95;;;;;;;;;;5087712;28;20036;-76
2022/08/19 08:59:34;;;;;;;21.98;15.50;;;;;;;;;;5088975;28;20036;-73
2022/08/19 09:02:20;;;;;;;20.02;16.63;;;;;;;;;;5089299;28;20016;-73
2022/08/19 09:05:05;;;;;;;19.17;14.65;;;;;;;;;;5090008;28;20031;-73
2022/08/19 09:08:05;;;;;;;22.13;16.40;;;;;;;;;;5088040;28;20372;-73
2022/08/19 09:10:50;;;;;;;;;;;;;;;;;;5089103;28;20035;-66
2022/08/19 09:14:02;;;;;;;20.35;15.18;;;;;;;;;;5092065;28;20027;-65
2022/08/19 09:16:49;;;;;;;19.30;15.65;;;;;;;;;;5089846;28;20028;-66
2022/08/19 09:19:46;;;;;;;19.65;16.67;;;;;;;;;;5083571;28;20097;-67
2022/08/19 09:22:32;;;;;;;19.35;15.73;;;;;;;;;;5071134;28;20523;-65
2022/08/19 09:25:21;;;;;;;16.35;14.20;;;;;;;;;;5089400;28;20024;-70
2022/08/19 09:28:07;;;;;;;20.88;15.18;;;;;;;;;;5088787;28;20089;-74
2022/08/19 09:30:52;;;;;;;18.10;14.68;;;;;;;;;;5089902;28;20390;-74
2022/08/19 09:33:38;;;;;;;16.38;13.45;;;;;;;;;;5091775;28;20123;-73
2022/08/19 09:36:25;;;;;;;17.65;14.90;;;;;;;;;;5084738;28;20028;-75
2022/08/19 09:39:11;;;;;;;18.65;14.43;;;;;;;;;;5090859;28;20133;-74
2022/08/19 09:41:56;;;;;;;18.52;15.88;;;;;;;;;;5090103;28;20028;-75
2022/08/19 09:44:42;;;;;;;18.17;12.48;;;;;;;;;;5089234;28;20031;-73
2022/08/19 09:47:28;;;;;;;16.65;13.52;;;;;;;;;;5115768;22;20452;-70
2022/08/19 09:50:14;;;;;;;17.20;13.45;;;;;;;;;;5105073;28;20162;-70
2022/08/19 09:52:59;;;;;;;17.02;14.27;;;;;;;;;;5106193;28;20065;-71
2022/08/19 09:55:45;;;;;;;19.98;14.57;;;;;;;;;;5107910;28;20622;-72
2022/08/19 09:58:31;;;;;;;13.73;12.23;;;;;;;;;;5105238;28;20027;-71
2022/08/19 10:01:18;;;;;;;20.92;12.52;;;;;;;;;;5090426;28;20027;-71
2022/08/19 10:04:08;;;;;;;14.30;12.63;;;;;;;;;;5108876;27;20378;-68
2022/08/19 10:06:53;;;;;;;;;;;;;;;;;;5110471;28;20032;-77
2022/08/19 10:09:40;;;;;;;15.52;11.65;;;;;;;;;;5094275;28;19912;-77
2022/08/19 10:12:26;;;;;;;16.38;12.60;;;;;;;;;;5115949;27;20114;-78
2022/08/19 10:15:12;;;;;;;15.88;12.30;;;;;;;;;;5106459;28;20032;-78
2022/08/19 10:17:59;;;;;;;15.25;12.48;;;;;;;;;;5111412;28;20524;-78
2022/08/19 10:20:45;;;;;;;17.45;11.48;;;;;;;;;;5109451;27;20111;-76
2022/08/19 10:23:31;;;;;;;13.35;10.82;;;;;;;;;;5095486;28;20027;-81
2022/08/19 10:26:17;;;;;;;14.73;10.70;;;;;;;;;;5094019;28;20063;-79
2022/08/19 10:29:04;;;;;;;14.55;11.48;;;;;;;;;;5106392;28;20462;-85
2022/08/19 10:31:50;;;;;;;15.77;10.35;;;;;;;;;;5111713;28;20488;-82
2022/08/19 10:34:37;;;;;;;16.17;11.43;;;;;;;;;;5101145;28;20028;-89
2022/08/19 10:37:22;;;;;;;14.70;11.43;;;;;;;;;;5097732;28;20040;-75
2022/08/19 10:40:10;;;;;;;14.70;11.45;;;;;;;;;;5091978;28;20035;-69
2022/08/19 10:42:56;;;;;;;13.88;9.70;;;;;;;;;;5102364;28;20072;-68
2022/08/19 10:45:42;;;;;;;16.58;12.23;;;;;;;;;;5108537;28;20035;-69
2022/08/19 10:48:27;;;;;;;13.15;9.52;;;;;;;;;;5106767;28;20068;-67
2022/08/19 10:54:17;;;;;;;13.30;9.02;;;;;;;;;;5106716;28;20391;-72
2022/08/19 10:57:03;;;;;;;12.73;9.15;;;;;;;;;;5109617;28;20064;-76
2022/08/19 10:59:49;;;;;;;13.43;10.27;;;;;;;;;;5104244;28;20020;-74
2022/08/19 11:02:34;;;;;;;14.10;8.52;;;;;;;;;;5095789;28;20040;-83
2022/08/19 11:05:22;;;;;;;12.73;9.05;;;;;;;;;;5088380;28;20228;-78
2022/08/19 11:08:11;;;;;;;13.75;8.98;;;;;;;;;;5097735;28;20031;-80
2022/08/19 11:11:00;;;;;;;11.90;8.63;;;;;;;;;;5108927;28;20393;-76
2022/08/19 11:13:47;;;;;;;10.85;8.77;;;;;;;;;;5106061;28;20063;-76
2022/08/19 11:16:32;;;;;;;11.88;8.95;;;;;;;;;;5103438;28;20058;-76
2022/08/19 11:19:19;;;;;;;13.60;8.68;;;;;;;;;;5097450;28;20356;-70
2022/08/19 11:22:09;;;;;;;14.38;9.70;;;;;;;;;;5108529;28;20027;-72
2022/08/19 11:24:55;;;;;;;11.98;9.02;;;;;;;;;;5104647;28;20023;-72
2022/08/19 11:27:43;;;;;;;11.73;8.57;;;;;;;;;;5094832;28;20046;-75
2022/08/19 11:30:28;;;;;;;15.35;8.73;;;;;;;;;;5088807;28;20504;-73
2022/08/19 11:33:14;;;;;;;12.20;8.32;;;;;;;;;;5110654;28;20036;-79
2022/08/19 11:36:00;;;;;;;12.15;9.07;;;;;;;;;;5106763;28;20120;-75
2022/08/19 11:38:48;;;;;;;11.27;8.73;;;;;;;;;;5109449;28;20038;-78
2022/08/19 11:41:34;;;;;;;13.48;9.00;;;;;;;;;;5096671;28;20043;-81
2022/08/19 11:44:19;;;;;;;11.95;8.25;;;;;;;;;;5090476;28;20520;-78
2022/08/19 11:47:06;;;;;;;13.32;8.95;;;;;;;;;;5100169;28;20053;-83
2022/08/19 11:49:53;;;;;;;12.93;9.10;;;;;;;;;;5088293;28;20039;-83
2022/08/19 11:52:38;;;;;;;13.80;9.15;;;;;;;;;;5089692;28;20043;-77
2022/08/19 11:55:24;;;;;;;10.63;8.45;;;;;;;;;;5091931;28;20024;-72
2022/08/19 11:58:10;;;;;;;11.20;8.70;;;;;;;;;;5091649;28;20031;-71
2022/08/19 12:00:56;;;;;;;12.73;8.23;;;;;;;;;;5098491;28;20026;-71
2022/08/19 12:03:42;;;;;;;11.88;7.53;;;;;;;;;;5088295;28;20019;-70
2022/08/19 12:06:29;;;;;;;10.75;7.90;;;;;;;;;;5109058;28;20054;-71
2022/08/19 12:09:15;;;;;;;11.77;8.65;;;;;;;;;;5104425;28;20032;-69
2022/08/19 12:12:04;;;;;;;13.52;7.90;;;;;;;;;;5101507;28;20038;-72
2022/08/19 12:14:56;;;;;;;14.05;7.80;;;;;;;;;;5094523;28;20440;-74
2022/08/19 12:17:42;;;;;;;10.40;7.22;;;;;;;;;;5107272;28;20040;-76
2022/08/19 12:20:27;;;;;;;10.27;7.63;;;;;;;;;;5108165;28;20027;-73
2022/08/19 12:23:13;;;;;;;11.57;7.85;;;;;;;;;;5108437;28;20156;-72
2022/08/19 12:25:58;;;;;;;10.13;7.72;;;;;;;;;;5087776;28;20466;-73
2022/08/19 12:28:44;;;;;;;11.48;7.70;;;;;;;;;;5093826;28;20047;-70
2022/08/19 12:31:30;;;;;;;10.75;7.45;;;;;;;;;;5092211;28;20116;-74
2022/08/19 12:34:15;;;;;;;9.65;7.32;;;;;;;;;;5092552;28;20070;-72
2022/08/19 12:37:02;;;;;;;11.25;7.45;;;;;;;;;;5105056;28;20042;-70
2022/08/19 12:39:48;;;;;;;10.98;7.50;;;;;;;;;;5106248;28;20027;-71
2022/08/19 12:42:34;;;;;;;11.88;7.88;;;;;;;;;;5094097;28;20074;-71
2022/08/19 12:45:20;;;;;;;8.75;7.35;;;;;;;;;;5084791;28;20031;-72
2022/08/19 12:48:05;;;;;;;11.52;7.53;;;;;;;;;;5104370;28;20045;-79
2022/08/19 12:50:51;;;;;;;9.90;7.65;;;;;;;;;;5106189;28;20024;-70
2022/08/19 12:53:37;;;;;;;12.55;7.35;;;;;;;;;;5098700;28;20377;-71
2022/08/19 12:56:23;;;;;;;11.57;8.00;;;;;;;;;;5106416;28;20455;-71
2022/08/19 12:59:08;;;;;;;12.88;8.27;;;;;;;;;;5092094;28;20039;-68
2022/08/19 13:01:54;;;;;;;9.63;7.50;;;;;;;;;;5101407;28;20049;-71
2022/08/19 13:04:40;;;;;;;10.27;7.40;;;;;;;;;;5094108;28;20057;-69
2022/08/19 13:07:26;;;;;;;12.45;8.38;;;;;;;;;;5106383;28;20518;-69
2022/08/19 13:10:13;;;;;;;12.77;8.00;;;;;;;;;;5107688;28;20024;-78
2022/08/19 13:12:59;;;;;;;13.98;8.18;;;;;;;;;;5089413;28;20027;-77
2022/08/19 13:15:45;;;;;;;11.75;7.07;;;;;;;;;;5101990;28;20027;-80
2022/08/19 13:18:31;;;;;;;11.73;8.90;;;;;;;;;;5096937;28;20034;-76
2022/08/19 13:21:19;;;;;;;15.07;9.60;;;;;;;;;;5109398;28;20032;-78
2022/08/19 13:24:05;;;;;;;12.52;10.77;;;;;;;;;;5089277;28;20024;-78
2022/08/19 13:26:50;;;;;;;18.83;11.55;;;;;;;;;;5098674;28;20040;-62
2022/08/19 13:35:46;;;;;;;21.35;16.35;;;;;;;;;;5105733;28;20069;-63
2022/08/19 13:38:32;;;;;;;19.80;16.58;;;;;;;;;;5109492;28;20020;-62
2022/08/19 13:41:19;;;;;;;17.95;15.55;;;;;;;;;;5108010;28;20023;-68
2022/08/19 13:44:06;;;;;;;22.25;18.92;;;;;;;;;;5110005;28;20046;-66
2022/08/19 13:46:53;;;;;;;21.67;16.70;;;;;;;;;;5111207;28;20035;-65
2022/08/19 13:49:38;;;;;;;22.58;18.77;;;;;;;;;;5112006;28;20032;-66
2022/08/19 13:52:24;;;;;;;19.67;16.77;;;;;;;;;;5111373;28;20035;-67
2022/08/19 13:55:11;;;;;;;19.95;16.45;;;;;;;;;;5106623;28;20023;-68
2022/08/19 13:57:58;;;;;;;21.88;16.15;;;;;;;;;;5102629;28;20045;-68
2022/08/19 14:00:45;;;;;;;22.25;18.10;;;;;;;;;;5113110;28;20583;-66
2022/08/19 14:03:31;;;;;;;24.90;18.02;;;;;;;;;;5110249;28;20016;-62
2022/08/19 14:06:32;;;;;;;20.27;18.13;;;;;;;;;;5103990;28;20055;-72
2022/08/19 14:09:18;;;;;;;21.77;17.65;;;;;;;;;;5104845;28;20027;-73
2022/08/19 14:12:04;;;;;;;22.20;19.35;;;;;;;;;;5103153;28;20036;-73
2022/08/19 14:14:50;;;;;;;23.70;18.10;;;;;;;;;;5109628;28;20036;-72
2022/08/19 14:17:39;;;;;;;23.67;17.70;;;;;;;;;;5083195;28;20065;-72
2022/08/19 14:20:33;;;;;;;22.33;18.15;;;;;;;;;;5098241;28;20039;-72
2022/08/19 14:23:19;;;;;;;19.98;17.55;;;;;;;;;;5105846;28;20028;-68
2022/08/19 14:26:09;;;;;;;19.52;17.33;;;;;;;;;;5107425;28;20015;-67
2022/08/19 14:28:57;;;;;;;20.35;17.17;;;;;;;;;;5101434;28;20023;-69
2022/08/19 14:31:42;;;;;;;24.15;18.85;;;;;;;;;;5108223;28;20024;-67
2022/08/19 14:34:28;;;;;;;19.90;16.52;;;;;;;;;;5110838;28;20027;-65
2022/08/19 14:37:14;;;;;;;18.90;16.55;;;;;;;;;;5110591;28;20031;-66
2022/08/19 14:40:00;;;;;;;21.95;18.17;;;;;;;;;;5108900;28;20451;-60
2022/08/19 14:42:46;;;;;;;20.33;18.27;;;;;;;;;;5080214;28;20232;-64
2022/08/19 14:45:36;;;;;;;19.80;17.05;;;;;;;;;;5110351;28;20128;-64
2022/08/19 14:48:22;;;;;;;18.98;15.75;;;;;;;;;;5092426;28;20086;-65
2022/08/19 14:51:08;;;;;;;18.00;15.25;;;;;;;;;;5103498;28;20117;-65
2022/08/19 14:53:54;;;;;;;16.20;13.88;;;;;;;;;;5078838;28;20047;-66
2022/08/19 14:56:40;;;;;;;18.55;14.95;;;;;;;;;;5103603;28;20467;-62
2022/08/19 14:59:25;;;;;;;17.77;15.40;;;;;;;;;;5101163;28;20019;-75
2022/08/19 15:02:38;;;;;;;21.15;15.40;;;;;;;;;;5107687;28;20118;-74
2022/08/19 15:05:36;;;;;;;17.20;13.23;;;;;;;;;;5083175;28;20046;-70
2022/08/19 15:08:24;;;;;;;16.48;13.93;;;;;;;;;;5100676;28;20028;-73
2022/08/19 15:11:15;;;;;;;16.00;13.55;;;;;;;;;;5094905;28;20031;-73
2022/08/19 15:14:01;;;;;;;17.33;13.77;;;;;;;;;;5104869;28;20134;-72
2022/08/19 15:16:46;;;;;;;14.93;13.32;;;;;;;;;;5081367;28;20076;-69
2022/08/19 15:19:33;;;;;;;13.43;12.00;;;;;;;;;;5106874;28;20034;-60
2022/08/19 15:22:18;;;;;;;14.30;10.95;;;;;;;;;;5099910;28;20031;-61
2022/08/19 15:25:05;;;;;;;21.15;13.07;;;;;;;;;;5104591;28;20035;-59
2022/08/19 15:27:52;;;;;;;17.58;11.88;;;;;;;;;;5108183;28;20412;-62
2022/08/19 15:30:38;;;;;;;19.02;12.40;;;;;;;;;;5107720;28;20028;-58
2022/08/19 15:33:24;;;;;;;13.73;11.65;;;;;;;;;;5107786;28;20032;-69
2022/08/19 15:36:11;;;;;;;16.88;11.80;;;;;;;;;;5094164;28;20032;-72
2022/08/19 15:38:57;;;;;;;14.73;11.52;;;;;;;;;;5108259;28;20076;-66
2022/08/19 15:41:43;;;;;;;13.35;11.30;;;;;;;;;;5108257;28;20028;-65
2022/08/19 15:44:29;;;;;;;12.70;10.95;;;;;;;;;;5103860;28;20030;-63
2022/08/19 15:47:14;;;;;;;14.50;11.93;;;;;;;;;;5106899;28;20173;-63
2022/08/19 15:50:00;;;;;;;13.15;10.93;;;;;;;;;;5100005;28;20024;-63
2022/08/19 15:52:51;;;;;;;17.38;11.93;;;;;;;;;;5098085;28;20032;-70
2022/08/19 15:55:57;;;;;;;14.68;12.07;;;;;;;;;;5104400;28;20471;-70
2022/08/19 16:07:57;;;;;;;16.85;12.10;;;;;;;;;;5089229;28;20031;-70
2022/08/19 16:10:57;;;;;;;16.63;12.63;;;;;;;;;;5104656;28;20028;-70
2022/08/19 16:13:44;;;;;;;17.08;11.77;;;;;;;;;;5084861;28;20489;-69
2022/08/19 16:16:32;;;;;;;13.70;10.50;;;;;;;;;;5100268;28;20023;-80
2022/08/19 16:19:18;;;;;;;12.18;10.85;;;;;;;;;;5102385;28;20466;-81
2022/08/19 16:22:04;;;;;;;12.88;9.70;;;;;;;;;;5110493;28;20066;-81
2022/08/19 16:24:50;;;;;;;13.65;10.98;;;;;;;;;;5109691;28;20066;-81
2022/08/19 16:27:35;;;;;;;11.35;9.52;;;;;;;;;;5100868;28;20019;-81
2022/08/19 16:30:21;;;;;;;14.00;11.20;;;;;;;;;;5096182;28;20035;-75
2022/08/19 16:33:07;;;;;;;16.80;12.98;;;;;;;;;;5099826;28;20067;-74
2022/08/19 16:35:53;;;;;;;15.32;12.02;;;;;;;;;;5088306;28;20039;-74
2022/08/19 16:38:38;;;;;;;15.93;10.82;;;;;;;;;;5104549;28;20076;-73
2022/08/19 16:41:24;;;;;;;13.13;10.35;;;;;;;;;;5093875;28;20106;-74
2022/08/19 16:44:12;;;;;;;13.43;11.32;;;;;;;;;;5108915;28;20038;-73
2022/08/19 16:46:58;;;;;;;14.88;12.02;;;;;;;;;;5114507;28;20038;-72
2022/08/19 16:49:44;;;;;;;15.60;10.82;;;;;;;;;;5110311;28;20439;-74